Time;durP1;ratioP1;P1;durP2;ratioP2;P2;SDS_P1;SDS_P2;PMS_P1;PMS_P2;Temp;Humidity;BMP_temperature;BMP_pressure;BME280_temperature;BME280_humidity;BME280_pressure;Samples;Min_cycle;Max_cycle;Signal;HPM_P1;HPM_P2
2021/12/25 00:00:19;;;;;;;6.73;6.00;;;11.20;99.90;;;;;;4994696;28;20191;-62
2021/12/25 00:02:46;;;;;;;7.43;6.00;;;11.20;99.90;;;;;;4994984;28;20567;-62
2021/12/25 00:05:14;;;;;;;5.87;5.13;;;11.20;99.90;;;;;;4994748;28;20442;-61
2021/12/25 00:07:39;;;;;;;6.30;5.50;;;11.20;99.90;;;;;;4994713;28;20440;-62
2021/12/25 00:10:07;;;;;;;7.53;6.40;;;11.20;99.90;;;;;;4994601;28;20443;-60
2021/12/25 00:12:33;;;;;;;5.70;5.20;;;11.30;99.90;;;;;;4994778;28;20625;-62
2021/12/25 00:15:00;;;;;;;6.03;5.43;;;11.30;99.90;;;;;;4995203;28;20408;-62
2021/12/25 00:17:26;;;;;;;5.97;5.40;;;11.10;99.90;;;;;;4994919;28;20436;-65
2021/12/25 00:19:53;;;;;;;5.90;5.40;;;10.90;99.90;;;;;;4994729;28;20428;-62
2021/12/25 00:22:19;;;;;;;7.50;5.90;;;10.90;99.90;;;;;;4994268;28;20478;-61
2021/12/25 00:24:45;;;;;;;5.53;5.03;;;10.90;99.90;;;;;;4993125;28;20413;-62
2021/12/25 00:27:41;;;;;;;7.73;6.20;;;10.90;99.90;;;;;;4994376;28;20407;-61
2021/12/25 00:30:25;;;;;;;6.80;6.10;;;10.90;99.90;;;;;;4993896;28;20427;-60
2021/12/25 00:35:18;;;;;;;7.93;6.10;;;10.80;99.90;;;;;;4994806;28;20404;-59
2021/12/25 00:37:44;;;;;;;8.80;6.60;;;10.80;99.90;;;;;;4994168;28;20495;-61
2021/12/25 00:40:10;;;;;;;7.17;6.27;;;10.70;99.90;;;;;;4994408;28;20413;-62
2021/12/25 00:42:35;;;;;;;6.97;5.60;;;10.60;99.90;;;;;;4992677;28;20726;-61
2021/12/25 00:45:01;;;;;;;9.30;6.50;;;10.70;99.90;;;;;;4994268;28;20499;-62
2021/12/25 00:47:27;;;;;;;7.67;6.67;;;10.80;99.90;;;;;;4993975;28;20175;-62
2021/12/25 00:49:52;;;;;;;6.43;5.83;;;10.80;99.90;;;;;;4994272;28;20208;-62
2021/12/25 00:52:18;;;;;;;7.60;6.80;;;10.80;99.90;;;;;;4994014;28;20199;-62
2021/12/25 00:54:44;;;;;;;8.90;5.10;;;10.80;99.90;;;;;;4994416;28;20200;-62
2021/12/25 00:57:09;;;;;;;7.53;6.50;;;10.90;99.90;;;;;;4994122;28;20228;-62
2021/12/25 00:59:35;;;;;;;5.90;5.30;;;10.90;99.90;;;;;;4993773;28;20179;-62
2021/12/25 01:02:01;;;;;;;7.00;5.57;;;11.00;99.90;;;;;;4993047;28;20209;-61
2021/12/25 01:04:26;;;;;;;5.43;4.90;;;10.90;99.90;;;;;;4993843;28;20181;-61
2021/12/25 01:06:53;;;;;;;5.50;4.93;;;10.80;99.90;;;;;;4994157;28;20623;-61
2021/12/25 01:09:18;;;;;;;4.87;4.47;;;10.70;99.90;;;;;;4994085;28;20173;-61
2021/12/25 01:11:47;;;;;;;4.40;4.00;;;10.70;99.90;;;;;;4993727;28;20450;-61
2021/12/25 01:14:41;;;;;;;4.87;4.37;;;10.80;99.90;;;;;;4993891;28;20267;-61
2021/12/25 01:37:59;;;;;;;6.73;6.00;;;11.00;99.90;;;;;;4993723;28;20592;-62
2021/12/25 01:48:25;;;;;;;8.43;7.00;;;10.90;99.90;;;;;;4993895;28;20591;-61
2021/12/25 01:50:51;;;;;;;5.60;5.10;;;10.90;99.90;;;;;;4993244;28;20429;-62
2021/12/25 01:53:17;;;;;;;5.90;5.30;;;10.90;99.90;;;;;;4993479;28;20412;-62
2021/12/25 01:55:42;;;;;;;6.37;5.30;;;10.90;99.90;;;;;;4993235;28;20787;-61
2021/12/25 01:58:08;;;;;;;6.00;5.50;;;11.00;99.90;;;;;;4993605;28;20177;-61
2021/12/25 02:01:01;;;;;;;7.20;6.50;;;11.00;99.90;;;;;;4993575;28;20202;-61
2021/12/25 02:03:30;;;;;;;6.30;5.70;;;11.00;99.90;;;;;;4991578;28;20479;-62
2021/12/25 02:05:57;;;;;;;8.30;5.27;;;10.90;99.90;;;;;;4993250;28;20447;-62
2021/12/25 02:08:24;;;;;;;7.87;7.07;;;10.90;99.90;;;;;;4993292;28;20413;-62
2021/12/25 02:10:50;;;;;;;8.30;6.70;;;10.90;99.90;;;;;;4993199;28;20504;-62
2021/12/25 02:13:17;;;;;;;7.20;6.47;;;10.90;99.90;;;;;;4994480;28;20508;-61
2021/12/25 02:15:46;;;;;;;8.63;7.03;;;10.80;99.90;;;;;;4996876;28;20495;-62
2021/12/25 02:18:19;;;;;;;7.30;5.83;;;10.80;99.90;;;;;;4996985;28;20412;-62
2021/12/25 02:23:21;;;;;;;5.97;5.40;;;10.80;99.90;;;;;;4997113;28;20447;-61
2021/12/25 02:25:48;;;;;;;7.90;6.77;;;10.90;99.90;;;;;;4996824;28;20391;-60
2021/12/25 02:28:14;;;;;;;7.53;6.43;;;10.90;99.90;;;;;;4997116;28;20930;-62
2021/12/25 02:30:42;;;;;;;7.43;6.73;;;10.90;99.90;;;;;;4996889;28;20432;-62
2021/12/25 02:33:08;;;;;;;7.90;7.07;;;10.90;99.90;;;;;;4996629;28;20552;-61
2021/12/25 02:35:34;;;;;;;7.17;6.47;;;10.80;99.90;;;;;;4996600;28;20436;-61
2021/12/25 02:38:00;;;;;;;11.23;8.57;;;10.70;99.90;;;;;;4996510;28;20500;-61
2021/12/25 02:40:25;;;;;;;8.77;7.83;;;10.70;99.90;;;;;;4996542;28;20207;-61
2021/12/25 02:42:51;;;;;;;9.03;7.40;;;10.70;99.90;;;;;;4996660;28;20200;-62
2021/12/25 02:45:18;;;;;;;10.77;9.70;;;10.70;99.90;;;;;;4996729;28;20169;-61
2021/12/25 02:47:50;;;;;;;7.13;6.40;;;10.70;99.90;;;;;;4996348;28;20174;-61
2021/12/25 02:50:30;;;;;;;7.40;6.63;;;10.70;99.90;;;;;;4996292;28;20798;-62
2021/12/25 02:52:59;;;;;;;8.53;7.43;;;10.80;99.90;;;;;;4996289;28;20437;-61
2021/12/25 02:55:26;;;;;;;7.00;5.90;;;10.70;99.90;;;;;;4996261;28;20419;-61
2021/12/25 02:57:52;;;;;;;7.53;6.83;;;10.70;99.90;;;;;;4996431;28;20408;-61
2021/12/25 03:00:25;;;;;;;6.80;6.10;;;10.80;99.90;;;;;;4996153;28;20856;-61
2021/12/25 03:02:50;;;;;;;8.60;7.80;;;10.80;99.90;;;;;;4995933;28;20944;-62
2021/12/25 03:05:16;;;;;;;8.20;7.23;;;10.80;99.90;;;;;;4996325;28;20408;-61
2021/12/25 03:07:43;;;;;;;8.70;7.80;;;10.80;99.90;;;;;;4996040;28;20198;-60
2021/12/25 03:10:10;;;;;;;13.73;10.70;;;10.80;99.90;;;;;;4996043;28;20854;-61
2021/12/25 03:12:47;;;;;;;9.30;8.20;;;10.80;99.90;;;;;;4995973;28;20413;-61
2021/12/25 03:15:17;;;;;;;7.00;6.30;;;10.80;99.90;;;;;;4996620;28;20390;-61
2021/12/25 03:17:42;;;;;;;6.43;5.83;;;10.70;99.90;;;;;;4995930;28;20447;-59
2021/12/25 03:20:11;;;;;;;11.63;7.30;;;10.80;99.90;;;;;;4996141;28;20435;-61
2021/12/25 03:22:38;;;;;;;7.10;6.47;;;10.80;99.90;;;;;;4995675;28;20186;-62
2021/12/25 03:25:08;;;;;;;5.70;5.10;;;10.70;99.90;;;;;;4994806;28;20494;-62
2021/12/25 03:27:36;;;;;;;9.00;7.70;;;10.70;99.90;;;;;;4995846;28;20423;-62
2021/12/25 03:30:03;;;;;;;6.57;5.80;;;10.70;99.90;;;;;;4995688;28;20409;-62
2021/12/25 03:32:29;;;;;;;7.97;6.60;;;10.70;99.90;;;;;;4995378;28;20516;-62
2021/12/25 03:34:54;;;;;;;6.63;5.93;;;10.70;99.90;;;;;;4995531;28;20519;-62
2021/12/25 03:37:20;;;;;;;6.00;5.40;;;10.70;99.90;;;;;;4995654;28;20171;-62
2021/12/25 03:39:45;;;;;;;6.90;6.20;;;10.80;99.90;;;;;;4995444;28;20589;-61
2021/12/25 03:42:11;;;;;;;6.33;5.73;;;10.90;99.90;;;;;;4995090;28;20243;-63
2021/12/25 03:44:37;;;;;;;7.00;5.30;;;10.80;99.90;;;;;;4995189;28;20572;-61
2021/12/25 03:47:12;;;;;;;7.53;6.73;;;10.80;99.90;;;;;;4995212;28;20169;-62
2021/12/25 03:57:56;;;;;;;4.10;3.67;;;10.80;99.90;;;;;;4995279;28;20528;-62
2021/12/25 04:00:29;;;;;;;3.33;3.03;;;10.60;99.90;;;;;;4995244;28;21048;-62
2021/12/25 04:02:59;;;;;;;3.47;3.17;;;10.70;99.90;;;;;;4995120;28;20477;-62
2021/12/25 04:05:29;;;;;;;3.43;3.17;;;10.60;99.90;;;;;;4994919;28;20415;-62
2021/12/25 04:08:15;;;;;;;3.43;3.10;;;10.70;99.90;;;;;;4995107;28;20881;-62
2021/12/25 04:10:43;;;;;;;2.63;2.43;;;10.80;99.90;;;;;;4995030;28;20426;-62
2021/12/25 04:13:13;;;;;;;3.43;2.43;;;10.80;99.90;;;;;;4994764;28;20511;-62
2021/12/25 04:15:40;;;;;;;3.17;2.87;;;10.80;99.90;;;;;;4995042;28;20414;-62
2021/12/25 04:18:06;;;;;;;5.20;4.10;;;10.80;99.90;;;;;;4994820;28;20499;-62
2021/12/25 04:20:33;;;;;;;2.40;2.10;;;10.80;99.90;;;;;;5019760;23;20453;-63
2021/12/25 04:23:06;;;;;;;2.70;2.33;;;10.70;99.90;;;;;;5014735;28;20800;-63
2021/12/25 04:25:34;;;;;;;2.00;1.73;;;10.80;99.90;;;;;;5014409;28;20424;-64
2021/12/25 04:28:09;;;;;;;3.03;2.30;;;10.80;99.90;;;;;;5014213;28;20836;-64
2021/12/25 04:31:04;;;;;;;2.50;2.20;;;10.80;99.90;;;;;;5014342;28;20394;-62
2021/12/25 05:06:01;;;;;;;1.40;1.17;;;10.40;99.90;;;;;;5013469;28;20832;-62
2021/12/25 05:08:27;;;;;;;3.77;1.97;;;10.40;99.90;;;;;;5013670;28;20573;-62
2021/12/25 05:10:54;;;;;;;2.50;2.00;;;10.40;99.90;;;;;;5013238;28;20538;-63
2021/12/25 05:13:20;;;;;;;3.20;1.73;;;10.40;99.90;;;;;;5013448;28;20687;-62
2021/12/25 05:15:47;;;;;;;3.90;2.40;;;10.50;99.90;;;;;;5013641;28;20434;-63
2021/12/25 05:18:12;;;;;;;5.53;2.90;;;10.50;99.90;;;;;;5014192;28;20982;-63
2021/12/25 05:20:38;;;;;;;2.40;1.80;;;10.50;99.90;;;;;;5013093;28;20419;-62
2021/12/25 05:23:04;;;;;;;2.20;1.70;;;10.60;99.90;;;;;;5012860;28;20192;-63
2021/12/25 05:25:31;;;;;;;3.97;2.00;;;10.50;99.90;;;;;;5012799;28;20246;-63
2021/12/25 05:27:59;;;;;;;3.40;1.63;;;10.50;99.90;;;;;;5012765;28;20544;-63
2021/12/25 05:30:25;;;;;;;3.43;2.07;;;10.50;99.90;;;;;;5012370;28;20396;-62
2021/12/25 05:32:51;;;;;;;4.17;2.40;;;10.50;99.90;;;;;;5012779;28;20867;-63
2021/12/25 05:35:16;;;;;;;3.47;2.80;;;10.40;99.90;;;;;;5012708;28;20425;-62
2021/12/25 05:37:42;;;;;;;3.83;3.50;;;10.30;99.90;;;;;;5012683;28;20173;-63
2021/12/25 05:40:09;;;;;;;4.23;3.83;;;10.30;99.90;;;;;;5012338;28;20171;-62
2021/12/25 05:42:34;;;;;;;3.93;3.47;;;10.30;99.90;;;;;;5010931;28;20454;-63
2021/12/25 05:45:00;;;;;;;3.47;3.17;;;10.20;99.90;;;;;;5012369;28;20443;-62
2021/12/25 05:47:27;;;;;;;4.27;3.67;;;10.20;99.90;;;;;;5012273;28;20175;-62
2021/12/25 05:49:53;;;;;;;4.10;3.70;;;10.30;99.90;;;;;;5015632;28;20399;-63
2021/12/25 05:52:18;;;;;;;3.47;2.87;;;10.40;99.90;;;;;;5015749;28;20481;-63
2021/12/25 05:54:44;;;;;;;3.83;3.43;;;10.40;99.90;;;;;;5015676;28;20190;-63
2021/12/25 05:57:10;;;;;;;4.03;3.63;;;10.50;99.90;;;;;;5015957;28;20639;-63
2021/12/25 05:59:35;;;;;;;4.10;3.70;;;10.50;99.90;;;;;;5015663;28;20160;-63
2021/12/25 06:02:01;;;;;;;5.00;4.20;;;10.50;99.90;;;;;;5015375;28;20222;-62
2021/12/25 06:04:27;;;;;;;3.70;3.40;;;10.50;99.90;;;;;;5015607;28;20252;-63
2021/12/25 06:06:52;;;;;;;4.63;4.23;;;10.60;99.90;;;;;;5015712;28;20172;-63
2021/12/25 06:09:18;;;;;;;7.30;5.40;;;10.60;99.90;;;;;;5015563;28;20164;-62
2021/12/25 06:11:45;;;;;;;6.43;4.90;;;10.50;99.90;;;;;;5015744;28;20193;-62
2021/12/25 06:14:18;;;;;;;6.40;5.80;;;10.40;99.90;;;;;;5015797;28;20235;-62
2021/12/25 06:16:45;;;;;;;5.67;5.17;;;10.50;99.90;;;;;;5014298;28;20900;-63
2021/12/25 06:19:11;;;;;;;5.57;4.97;;;10.50;99.90;;;;;;5015664;28;20413;-63
2021/12/25 06:21:37;;;;;;;5.40;4.63;;;10.50;99.90;;;;;;4976892;28;1116658;-63
2021/12/25 06:24:05;;;;;;;6.23;5.47;;;10.50;99.90;;;;;;5016508;28;20596;-63
2021/12/25 06:26:32;;;;;;;8.27;5.50;;;10.60;99.90;;;;;;5016711;28;20480;-63
2021/12/25 06:28:58;;;;;;;5.57;4.90;;;10.60;99.90;;;;;;5016346;28;20407;-63
2021/12/25 06:31:24;;;;;;;6.60;5.13;;;10.60;99.90;;;;;;5016324;28;20504;-63
2021/12/25 06:33:50;;;;;;;7.03;6.30;;;10.50;99.90;;;;;;5016225;28;20168;-63
2021/12/25 06:36:16;;;;;;;6.00;4.87;;;10.50;99.90;;;;;;5016757;28;20168;-63
2021/12/25 06:38:42;;;;;;;4.87;4.37;;;10.60;99.90;;;;;;5016198;28;20442;-63
2021/12/25 06:41:10;;;;;;;5.90;4.93;;;10.40;99.90;;;;;;5016336;28;20442;-62
2021/12/25 06:43:36;;;;;;;6.53;5.93;;;10.30;99.90;;;;;;5014798;28;20997;-63
2021/12/25 06:46:02;;;;;;;9.83;6.90;;;10.50;99.90;;;;;;5016095;28;20892;-63
2021/12/25 06:48:30;;;;;;;6.40;5.80;;;10.40;99.90;;;;;;5016242;28;20468;-63
2021/12/25 06:50:55;;;;;;;6.60;6.00;;;10.40;99.90;;;;;;5015849;28;20600;-63
2021/12/25 06:53:21;;;;;;;4.80;4.33;;;10.40;99.90;;;;;;5015866;28;20508;-63
2021/12/25 06:55:47;;;;;;;8.60;5.50;;;10.40;99.90;;;;;;5014559;28;20179;-63
2021/12/25 06:58:12;;;;;;;5.20;4.57;;;10.40;99.90;;;;;;5015775;28;20183;-63
2021/12/25 07:00:39;;;;;;;7.17;5.83;;;10.60;99.90;;;;;;5015875;28;20446;-63
2021/12/25 07:03:04;;;;;;;6.00;5.27;;;10.70;99.90;;;;;;5015701;28;20228;-63
2021/12/25 07:05:30;;;;;;;7.33;6.23;;;10.60;99.90;;;;;;5015597;28;20403;-63
2021/12/25 07:07:56;;;;;;;6.00;5.40;;;10.70;99.90;;;;;;5015953;28;20255;-63
2021/12/25 07:10:22;;;;;;;6.70;5.20;;;10.60;99.90;;;;;;5014284;28;20170;-63
2021/12/25 07:12:50;;;;;;;5.77;5.13;;;10.60;99.90;;;;;;5015515;28;20403;-62
2021/12/25 07:15:16;;;;;;;4.83;4.43;;;10.50;99.90;;;;;;5015379;28;20429;-63
2021/12/25 07:17:43;;;;;;;5.70;5.20;;;10.70;99.90;;;;;;5015536;28;20470;-63
2021/12/25 07:20:09;;;;;;;5.33;4.83;;;10.70;99.90;;;;;;5015657;28;20482;-63
2021/12/25 07:22:35;;;;;;;6.13;5.50;;;10.70;99.90;;;;;;5015714;28;20589;-62
2021/12/25 07:25:01;;;;;;;5.10;4.60;;;10.80;99.90;;;;;;5015307;28;20846;-63
2021/12/25 07:27:27;;;;;;;7.30;5.20;;;10.80;99.90;;;;;;5015535;28;20214;-63
2021/12/25 07:29:52;;;;;;;7.03;5.47;;;10.70;99.90;;;;;;5015442;28;20438;-63
2021/12/25 07:32:18;;;;;;;5.80;5.30;;;10.70;99.90;;;;;;5015077;28;20199;-63
2021/12/25 07:34:47;;;;;;;5.83;4.73;;;10.60;99.90;;;;;;5015089;28;20207;-63
2021/12/25 07:37:15;;;;;;;4.90;4.50;;;10.70;99.90;;;;;;5015295;28;20187;-63
2021/12/25 07:39:41;;;;;;;6.27;5.67;;;10.60;99.90;;;;;;5015794;28;20469;-63
2021/12/25 07:42:07;;;;;;;6.77;6.07;;;10.70;99.90;;;;;;5014809;28;20499;-63
2021/12/25 07:44:33;;;;;;;5.83;5.23;;;10.90;99.90;;;;;;5013628;28;20913;-62
2021/12/25 07:46:59;;;;;;;5.97;5.37;;;10.80;99.90;;;;;;5015129;28;20405;-63
2021/12/25 07:49:26;;;;;;;6.30;5.30;;;10.80;99.90;;;;;;5014733;28;20202;-63
2021/12/25 07:51:52;;;;;;;6.07;4.87;;;10.80;99.90;;;;;;5014539;28;20439;-63
2021/12/25 07:54:18;;;;;;;5.97;5.37;;;10.70;99.90;;;;;;5014654;28;20423;-63
2021/12/25 07:56:44;;;;;;;5.10;4.30;;;10.70;99.90;;;;;;5014634;28;20888;-63
2021/12/25 07:59:10;;;;;;;5.90;4.53;;;10.90;99.90;;;;;;5014540;28;20423;-64
2021/12/25 08:01:36;;;;;;;5.97;5.40;;;10.80;99.90;;;;;;5014507;28;20447;-63
2021/12/25 08:04:03;;;;;;;5.30;4.80;;;10.60;99.90;;;;;;5014732;28;20409;-62
2021/12/25 08:06:30;;;;;;;6.07;5.47;;;10.50;99.90;;;;;;5014859;28;20410;-63
2021/12/25 08:09:00;;;;;;;6.00;5.20;;;10.60;99.90;;;;;;5014854;28;20405;-63
2021/12/25 08:11:26;;;;;;;6.63;6.03;;;10.60;99.90;;;;;;5014370;28;20430;-63
2021/12/25 08:13:51;;;;;;;5.93;5.27;;;10.60;99.90;;;;;;5014594;28;20414;-63
2021/12/25 08:16:17;;;;;;;6.10;5.40;;;10.70;99.90;;;;;;5014535;28;20405;-63
2021/12/25 08:18:43;;;;;;;6.37;5.73;;;10.70;99.90;;;;;;5014407;28;20175;-63
2021/12/25 08:21:08;;;;;;;6.20;4.57;;;10.80;99.90;;;;;;5014415;28;20719;-63
2021/12/25 08:23:34;;;;;;;6.93;4.67;;;10.80;99.90;;;;;;5014262;28;20542;-62
2021/12/25 08:26:01;;;;;;;7.30;5.03;;;11.00;99.90;;;;;;5014414;28;20177;-63
2021/12/25 08:28:27;;;;;;;4.67;4.20;;;11.00;99.90;;;;;;5014549;28;20187;-63
2021/12/25 08:30:53;;;;;;;4.97;4.53;;;11.00;99.90;;;;;;5014175;28;20437;-63
2021/12/25 08:33:19;;;;;;;6.20;5.40;;;11.00;99.90;;;;;;5014400;28;20177;-63
2021/12/25 08:35:45;;;;;;;4.27;3.87;;;10.90;99.90;;;;;;5014350;28;20911;-63
2021/12/25 08:38:11;;;;;;;4.17;3.77;;;10.80;99.90;;;;;;5014433;28;20444;-63
2021/12/25 08:40:38;;;;;;;5.10;4.60;;;11.00;99.90;;;;;;5013941;28;20196;-63
2021/12/25 08:43:05;;;;;;;5.10;4.57;;;11.00;99.90;;;;;;5014217;28;20534;-63
2021/12/25 08:45:42;;;;;;;4.93;4.43;;;10.80;99.90;;;;;;5014351;28;20459;-63
2021/12/25 08:48:20;;;;;;;7.30;4.97;;;11.00;99.90;;;;;;5014016;28;20402;-63
2021/12/25 08:50:52;;;;;;;5.53;4.80;;;11.00;99.90;;;;;;5013858;28;20496;-63
2021/12/25 08:53:19;;;;;;;4.70;4.30;;;11.00;99.90;;;;;;5013869;28;20418;-63
2021/12/25 08:55:47;;;;;;;6.00;5.00;;;11.10;99.90;;;;;;5013863;28;20435;-63
2021/12/25 08:58:12;;;;;;;4.80;4.40;;;11.10;99.90;;;;;;5013799;28;20965;-62
2021/12/25 09:00:38;;;;;;;5.47;4.97;;;11.20;99.90;;;;;;5014149;28;20499;-63
2021/12/25 09:03:04;;;;;;;6.07;5.40;;;11.40;99.90;;;;;;5014126;28;20231;-64
2021/12/25 09:05:30;;;;;;;6.40;4.97;;;11.50;99.90;;;;;;5013990;28;20170;-63
2021/12/25 09:07:55;;;;;;;5.03;4.53;;;11.60;99.90;;;;;;5014134;28;20183;-63
2021/12/25 09:10:22;;;;;;;4.90;4.40;;;11.70;99.90;;;;;;5013958;28;20171;-63
2021/12/25 09:12:49;;;;;;;6.30;5.00;;;11.80;99.90;;;;;;5014016;28;20180;-63
2021/12/25 09:15:16;;;;;;;8.60;4.90;;;11.90;99.90;;;;;;5014770;28;20399;-63
2021/12/25 09:17:42;;;;;;;6.00;5.40;;;11.90;99.90;;;;;;5013605;28;20415;-63
2021/12/25 09:20:09;;;;;;;8.63;4.97;;;11.80;99.90;;;;;;5013757;28;20511;-63
2021/12/25 09:22:35;;;;;;;5.17;4.33;;;11.90;99.90;;;;;;5012414;28;20469;-63
2021/12/25 09:25:02;;;;;;;5.20;4.70;;;11.90;99.90;;;;;;5012233;28;20400;-63
2021/12/25 09:27:28;;;;;;;4.47;4.07;;;11.90;99.90;;;;;;5012176;28;20168;-63
2021/12/25 09:29:53;;;;;;;3.40;3.10;;;11.70;99.90;;;;;;5012133;28;20427;-63
2021/12/25 09:32:20;;;;;;;3.50;3.20;;;11.60;99.90;;;;;;5013496;28;20198;-64
2021/12/25 09:34:45;;;;;;;3.77;3.30;;;11.40;99.90;;;;;;5013409;28;20673;-63
2021/12/25 09:37:12;;;;;;;5.93;4.60;;;11.40;99.90;;;;;;5013410;28;20494;-64
2021/12/25 09:39:38;;;;;;;5.13;4.40;;;11.40;99.90;;;;;;5013569;28;20184;-63
2021/12/25 09:42:05;;;;;;;4.17;3.77;;;11.50;99.90;;;;;;5013320;28;20466;-63
2021/12/25 09:44:30;;;;;;;4.43;4.00;;;11.50;99.90;;;;;;5013855;28;20178;-64
2021/12/25 09:46:56;;;;;;;3.50;3.20;;;11.40;99.90;;;;;;5013591;28;20502;-63
2021/12/25 09:49:22;;;;;;;7.60;6.23;;;11.40;99.90;;;;;;5013185;28;20534;-63
2021/12/25 09:51:47;;;;;;;52.17;38.90;;;11.50;99.90;;;;;;5013655;28;20237;-63
2021/12/25 09:54:15;;;;;;;13.07;11.63;;;11.60;99.90;;;;;;5011954;28;20180;-63
2021/12/25 09:56:43;;;;;;;29.73;20.83;;;11.60;99.90;;;;;;5013464;28;20181;-63
2021/12/25 09:59:10;;;;;;;42.20;34.20;;;11.70;99.90;;;;;;5013087;28;20411;-64
2021/12/25 10:01:48;;;;;;;10.83;9.73;;;11.80;99.90;;;;;;5013314;28;20446;-63
2021/12/25 10:04:36;;;;;;;10.40;9.30;;;11.70;99.90;;;;;;5012913;28;20491;-63
2021/12/25 10:07:22;;;;;;;19.57;15.90;;;11.80;99.90;;;;;;5006455;28;20411;-63
2021/12/25 10:10:16;;;;;;;5.10;4.60;;;11.70;99.90;;;;;;5013937;28;20962;-63
2021/12/25 10:12:48;;;;;;;5.93;5.33;;;11.90;99.90;;;;;;5011888;28;20431;-63
2021/12/25 10:15:17;;;;;;;6.47;5.60;;;11.90;99.90;;;;;;5012202;28;20797;-63
2021/12/25 10:17:52;;;;;;;4.77;4.37;;;12.10;99.90;;;;;;5013003;28;20431;-63
2021/12/25 10:20:26;;;;;;;5.93;5.13;;;12.20;99.90;;;;;;5011673;28;20407;-64
2021/12/25 10:23:06;;;;;;;6.70;6.03;;;12.30;99.90;;;;;;5013256;23;20498;-62
2021/12/25 10:25:42;;;;;;;3.77;3.47;;;12.60;99.90;;;;;;4993625;28;20376;-61
2021/12/25 10:28:09;;;;;;;4.60;4.20;;;12.70;99.90;;;;;;4993768;28;20461;-61
2021/12/25 10:31:16;;;;;;;4.40;3.00;;;12.70;99.90;;;;;;4993202;28;20392;-62
2021/12/25 10:33:52;;;;;;;3.73;2.90;;;12.20;99.90;;;;;;4914892;29;20422;-62
2021/12/25 10:36:31;;;;;;;3.17;2.73;;;12.20;99.90;;;;;;4971893;28;20440;-62
2021/12/25 10:39:06;;;;;;;5.00;4.60;;;12.30;99.90;;;;;;4977594;28;20805;-62
2021/12/25 10:41:36;;;;;;;2.77;2.57;;;12.50;99.90;;;;;;4977148;28;20513;-62
2021/12/25 10:44:14;;;;;;;4.47;2.57;;;12.40;99.90;;;;;;4977498;28;20924;-62
2021/12/25 10:46:54;;;;;;;2.30;2.03;;;12.30;99.90;;;;;;4977436;28;20433;-61
2021/12/25 10:49:22;;;;;;;2.13;1.93;;;12.30;99.90;;;;;;4977158;28;20400;-62
2021/12/25 10:51:48;;;;;;;1.60;1.50;;;12.40;99.90;;;;;;4976964;28;20427;-62
2021/12/25 10:54:16;;;;;;;2.00;1.90;;;12.20;99.90;;;;;;4977329;28;20405;-61
2021/12/25 10:56:45;;;;;;;3.07;2.30;;;12.50;99.90;;;;;;4977128;28;20530;-62
2021/12/25 10:59:15;;;;;;;3.30;2.30;;;12.80;99.90;;;;;;4976880;28;20977;-62
2021/12/25 11:01:50;;;;;;;2.70;2.50;;;13.00;99.90;;;;;;4977067;28;20518;-62
2021/12/25 11:04:29;;;;;;;3.07;2.77;;;13.10;99.90;;;;;;4977106;28;20392;-61
2021/12/25 11:06:56;;;;;;;2.73;1.80;;;13.00;99.90;;;;;;4977014;28;20403;-62
2021/12/25 11:09:22;;;;;;;2.20;2.00;;;13.40;99.90;;;;;;4977149;28;20448;-62
2021/12/25 11:12:17;;;;;;;2.80;2.50;;;13.60;99.90;;;;;;4976723;28;20429;-62
2021/12/25 11:14:44;;;;;;;2.00;1.80;;;13.80;99.90;;;;;;4977318;28;20382;-62
2021/12/25 11:17:27;;;;;;;2.10;1.73;;;13.90;99.90;;;;;;4975565;28;20465;-62
2021/12/25 11:20:02;;;;;;;3.83;1.67;;;13.90;99.90;;;;;;4976797;28;20399;-62
2021/12/25 11:22:47;;;;;;;6.50;4.23;;;13.90;99.90;;;;;;4976540;28;20460;-62
2021/12/25 11:25:14;;;;;;;2.00;1.70;;;14.00;99.90;;;;;;4976516;28;20389;-62
2021/12/25 11:27:39;;;;;;;5.23;3.20;;;13.70;99.90;;;;;;4976541;28;20407;-62
2021/12/25 11:30:07;;;;;;;6.43;4.30;;;13.90;99.90;;;;;;4976488;28;20782;-63
2021/12/25 11:32:32;;;;;;;2.07;1.70;;;13.80;99.90;;;;;;4976521;28;20603;-62
2021/12/25 11:34:58;;;;;;;2.17;1.70;;;13.90;99.90;;;;;;4976463;28;20411;-62
2021/12/25 11:37:25;;;;;;;2.27;1.43;;;13.90;99.90;;;;;;4976498;28;20166;-61
2021/12/25 11:39:53;;;;;;;1.77;1.67;;;14.00;99.90;;;;;;4976537;28;20419;-62
2021/12/25 11:42:20;;;;;;;1.30;1.20;;;14.00;99.90;;;;;;4976302;28;20509;-61
2021/12/25 11:44:51;;;;;;;2.90;1.40;;;13.80;99.90;;;;;;4976221;28;20399;-62
2021/12/25 11:47:41;;;;;;;1.70;1.60;;;13.90;99.90;;;;;;4975650;28;20429;-62
2021/12/25 11:50:16;;;;;;;1.90;1.80;;;13.90;99.90;;;;;;4976392;28;20727;-62
2021/12/25 11:52:51;;;;;;;2.10;1.90;;;13.90;99.90;;;;;;4976102;28;20475;-62
2021/12/25 11:58:39;;;;;;;3.60;2.33;;;13.60;99.90;;;;;;4976372;28;20389;-62
2021/12/25 12:01:39;;;;;;;1.27;1.17;;;13.40;99.90;;;;;;4976130;28;20411;-60
2021/12/25 12:04:10;;;;;;;2.20;1.40;;;13.00;99.90;;;;;;4977329;28;20573;-65
2021/12/25 12:06:48;;;;;;;1.20;1.10;;;12.80;99.90;;;;;;4977082;28;20444;-63
2021/12/25 12:09:23;;;;;;;1.80;1.63;;;12.90;99.90;;;;;;4977767;28;20430;-62
2021/12/25 12:12:09;;;;;;;4.07;1.67;;;13.20;99.90;;;;;;4975892;28;20487;-63
2021/12/25 12:14:35;;;;;;;2.10;1.90;;;13.00;99.90;;;;;;4975773;28;20392;-63
2021/12/25 12:17:07;;;;;;;2.30;1.70;;;12.90;99.90;;;;;;4975744;28;20424;-63
2021/12/25 12:19:38;;;;;;;2.00;1.50;;;12.70;99.90;;;;;;4976044;28;20421;-63
2021/12/25 12:22:33;;;;;;;2.60;2.23;;;12.80;99.90;;;;;;4976118;28;20842;-62
2021/12/25 12:27:55;;;;;;;3.47;1.63;;;13.10;99.90;;;;;;4976437;28;20893;-62
2021/12/25 12:30:38;;;;;;;5.10;2.60;;;13.00;99.90;;;;;;4976115;28;20380;-60
2021/12/25 12:33:24;;;;;;;2.00;1.67;;;13.10;99.90;;;;;;4975941;28;20429;-62
2021/12/25 12:35:52;;;;;;;2.47;1.80;;;13.00;99.90;;;;;;4975265;28;20775;-62
2021/12/25 12:38:24;;;;;;;2.77;2.00;;;13.00;99.90;;;;;;4975301;28;20408;-62
2021/12/25 12:41:09;;;;;;;1.80;1.53;;;12.80;99.90;;;;;;4975263;28;20411;-62
2021/12/25 12:43:53;;;;;;;2.50;2.00;;;12.60;99.90;;;;;;4974924;28;20440;-62
2021/12/25 12:46:19;;;;;;;1.80;1.40;;;12.50;99.90;;;;;;4975178;28;20457;-63
2021/12/25 12:49:04;;;;;;;2.80;1.67;;;12.50;99.90;;;;;;4975188;28;20404;-62
2021/12/25 12:51:30;;;;;;;5.17;4.23;;;12.60;99.90;;;;;;4975074;28;20186;-62
2021/12/25 12:53:56;;;;;;;2.53;2.33;;;12.60;99.90;;;;;;4974982;28;20418;-61
2021/12/25 12:56:22;;;;;;;2.60;2.03;;;12.60;99.90;;;;;;4975123;28;20181;-61
2021/12/25 12:58:53;;;;;;;2.97;2.67;;;12.60;99.90;;;;;;4974972;28;20252;-62
2021/12/25 13:01:19;;;;;;;6.67;5.10;;;12.60;99.90;;;;;;4974843;28;20422;-61
2021/12/25 13:03:45;;;;;;;2.57;2.37;;;12.60;99.90;;;;;;4975287;28;20975;-62
2021/12/25 13:06:14;;;;;;;3.40;3.10;;;12.60;99.90;;;;;;4975049;28;20401;-63
2021/12/25 13:08:42;;;;;;;8.37;6.70;;;12.70;99.90;;;;;;4974890;28;20228;-63
2021/12/25 13:11:31;;;;;;;3.13;2.30;;;12.60;99.90;;;;;;4975121;28;20781;-62
2021/12/25 13:14:00;;;;;;;3.63;2.87;;;12.40;99.90;;;;;;4974777;28;20402;-63
2021/12/25 13:16:37;;;;;;;2.77;2.57;;;12.40;99.90;;;;;;4974772;28;20409;-62
2021/12/25 13:19:05;;;;;;;3.23;2.40;;;12.40;99.90;;;;;;4974869;28;20801;-62
2021/12/25 13:21:32;;;;;;;2.77;2.20;;;12.30;99.90;;;;;;4974366;28;20488;-63
2021/12/25 13:24:11;;;;;;;2.37;2.17;;;12.20;99.90;;;;;;4975109;28;20409;-62
2021/12/25 13:26:41;;;;;;;3.17;2.87;;;12.30;99.90;;;;;;4974584;28;20768;-63
2021/12/25 13:29:11;;;;;;;3.10;2.50;;;12.30;99.90;;;;;;4974825;28;20499;-63
2021/12/25 13:31:39;;;;;;;2.20;1.90;;;12.30;99.90;;;;;;4974442;28;20444;-62
2021/12/25 13:34:18;;;;;;;2.80;2.47;;;12.10;99.90;;;;;;4974496;28;20482;-62
2021/12/25 13:36:54;;;;;;;5.00;3.27;;;12.00;99.90;;;;;;4974368;28;20429;-62
2021/12/25 13:39:26;;;;;;;4.47;3.90;;;11.90;99.90;;;;;;4974593;28;20427;-62
2021/12/25 13:42:05;;;;;;;3.57;2.73;;;11.70;99.90;;;;;;4974579;28;20471;-62
2021/12/25 13:44:34;;;;;;;3.17;2.63;;;11.70;99.90;;;;;;4974759;28;20740;-62
2021/12/25 13:47:14;;;;;;;2.60;2.37;;;11.80;99.90;;;;;;4974717;28;20425;-63
2021/12/25 13:49:43;;;;;;;3.20;2.70;;;11.80;99.90;;;;;;4974893;28;20392;-62
2021/12/25 13:52:21;;;;;;;3.10;2.80;;;11.90;99.90;;;;;;4974593;28;20428;-63
2021/12/25 13:55:13;;;;;;;4.00;3.70;;;11.80;99.90;;;;;;4974558;28;20389;-62
2021/12/25 13:57:56;;;;;;;3.43;2.63;;;11.90;99.90;;;;;;4974620;28;20855;-62
2021/12/25 14:00:31;;;;;;;3.60;3.30;;;11.60;99.90;;;;;;4974676;28;20380;-62
2021/12/25 14:03:08;;;;;;;3.50;3.20;;;11.70;99.90;;;;;;4974213;28;20444;-63
2021/12/25 14:05:37;;;;;;;3.30;3.00;;;11.80;99.90;;;;;;4974427;28;20393;-62
2021/12/25 14:08:04;;;;;;;3.60;2.77;;;11.80;99.90;;;;;;4974077;28;20783;-63
2021/12/25 14:10:32;;;;;;;3.50;3.17;;;11.70;99.90;;;;;;4977258;28;20410;-63
2021/12/25 14:13:01;;;;;;;6.40;3.80;;;11.70;99.90;;;;;;4977790;28;20436;-62
2021/12/25 14:15:30;;;;;;;4.70;4.07;;;11.80;99.90;;;;;;4978229;28;20408;-62
2021/12/25 14:17:56;;;;;;;4.03;3.20;;;11.90;99.90;;;;;;4977795;28;20466;-62